sensor_id;sensor_type;location;lat;lon;timestamp;temperature;humidity
35043;DHT22;21230;51.170;17.024;2023-04-03T00:01:29;1.30;99.90
35043;DHT22;21230;51.170;17.024;2023-04-03T00:03:56;1.30;99.90
35043;DHT22;21230;51.170;17.024;2023-04-03T00:06:24;1.30;99.90
35043;DHT22;21230;51.170;17.024;2023-04-03T00:08:50;1.30;99.90
35043;DHT22;21230;51.170;17.024;2023-04-03T00:11:16;1.30;99.90
35043;DHT22;21230;51.170;17.024;2023-04-03T00:13:41;1.30;99.90
35043;DHT22;21230;51.170;17.024;2023-04-03T00:16:07;1.30;99.90
35043;DHT22;21230;51.170;17.024;2023-04-03T00:18:34;1.20;99.90
35043;DHT22;21230;51.170;17.024;2023-04-03T00:20:59;1.20;99.90
35043;DHT22;21230;51.170;17.024;2023-04-03T00:23:25;1.30;99.90
35043;DHT22;21230;51.170;17.024;2023-04-03T00:25:51;1.20;99.90
35043;DHT22;21230;51.170;17.024;2023-04-03T00:28:20;1.20;99.90
35043;DHT22;21230;51.170;17.024;2023-04-03T00:30:47;1.20;99.90
35043;DHT22;21230;51.170;17.024;2023-04-03T00:33:13;1.20;99.90
35043;DHT22;21230;51.170;17.024;2023-04-03T00:35:39;1.10;99.90
35043;DHT22;21230;51.170;17.024;2023-04-03T00:38:05;1.10;99.90
35043;DHT22;21230;51.170;17.024;2023-04-03T00:40:36;1.20;99.90
35043;DHT22;21230;51.170;17.024;2023-04-03T00:43:02;1.20;99.90
35043;DHT22;21230;51.170;17.024;2023-04-03T00:45:33;1.20;99.90
35043;DHT22;21230;51.170;17.024;2023-04-03T00:48:04;1.10;99.90
35043;DHT22;21230;51.170;17.024;2023-04-03T00:50:31;1.10;99.90
35043;DHT22;21230;51.170;17.024;2023-04-03T00:52:57;1.10;99.90
35043;DHT22;21230;51.170;17.024;2023-04-03T00:55:23;1.10;99.90
35043;DHT22;21230;51.170;17.024;2023-04-03T00:57:49;1.10;99.90
35043;DHT22;21230;51.170;17.024;2023-04-03T01:00:16;1.10;99.90
35043;DHT22;21230;51.170;17.024;2023-04-03T01:02:42;1.00;99.90
35043;DHT22;21230;51.170;17.024;2023-04-03T01:05:08;1.10;99.90
35043;DHT22;21230;51.170;17.024;2023-04-03T01:07:34;1.00;99.90
35043;DHT22;21230;51.170;17.024;2023-04-03T01:10:09;1.00;99.90
35043;DHT22;21230;51.170;17.024;2023-04-03T01:12:37;1.00;99.90
35043;DHT22;21230;51.170;17.024;2023-04-03T01:15:07;1.00;99.90
35043;DHT22;21230;51.170;17.024;2023-04-03T01:17:34;0.90;99.90
35043;DHT22;21230;51.170;17.024;2023-04-03T01:22:28;0.90;99.90
35043;DHT22;21230;51.170;17.024;2023-04-03T01:24:56;0.90;99.90
35043;DHT22;21230;51.170;17.024;2023-04-03T01:27:22;0.90;99.90
35043;DHT22;21230;51.170;17.024;2023-04-03T01:29:48;0.90;99.90
35043;DHT22;21230;51.170;17.024;2023-04-03T01:32:14;0.90;99.90
35043;DHT22;21230;51.170;17.024;2023-04-03T01:34:40;0.80;99.90
35043;DHT22;21230;51.170;17.024;2023-04-03T01:37:05;0.80;99.90
35043;DHT22;21230;51.170;17.024;2023-04-03T01:39:31;0.80;99.90
35043;DHT22;21230;51.170;17.024;2023-04-03T01:41:57;0.70;99.90
35043;DHT22;21230;51.170;17.024;2023-04-03T01:44:24;0.70;99.90
35043;DHT22;21230;51.170;17.024;2023-04-03T01:46:50;0.70;99.90
35043;DHT22;21230;51.170;17.024;2023-04-03T01:49:15;0.60;99.90
35043;DHT22;21230;51.170;17.024;2023-04-03T01:51:44;0.60;99.90
35043;DHT22;21230;51.170;17.024;2023-04-03T01:54:22;0.60;99.90
35043;DHT22;21230;51.170;17.024;2023-04-03T01:57:08;0.60;99.90
35043;DHT22;21230;51.170;17.024;2023-04-03T01:59:37;0.50;99.90
35043;DHT22;21230;51.170;17.024;2023-04-03T02:02:03;0.50;99.90
35043;DHT22;21230;51.170;17.024;2023-04-03T02:04:28;0.50;99.90
35043;DHT22;21230;51.170;17.024;2023-04-03T02:06:54;0.40;99.90
35043;DHT22;21230;51.170;17.024;2023-04-03T02:09:26;0.40;99.90
35043;DHT22;21230;51.170;17.024;2023-04-03T02:12:02;0.40;99.90
35043;DHT22;21230;51.170;17.024;2023-04-03T02:14:45;0.30;99.90
35043;DHT22;21230;51.170;17.024;2023-04-03T02:17:13;0.30;99.90
35043;DHT22;21230;51.170;17.024;2023-04-03T02:19:42;0.30;99.90
35043;DHT22;21230;51.170;17.024;2023-04-03T02:22:21;0.20;99.90
35043;DHT22;21230;51.170;17.024;2023-04-03T02:24:47;0.20;99.90
35043;DHT22;21230;51.170;17.024;2023-04-03T02:27:29;0.20;99.90
35043;DHT22;21230;51.170;17.024;2023-04-03T02:30:03;0.20;99.90
35043;DHT22;21230;51.170;17.024;2023-04-03T02:32:32;0.20;99.90
35043;DHT22;21230;51.170;17.024;2023-04-03T02:34:58;0.10;99.90
35043;DHT22;21230;51.170;17.024;2023-04-03T02:37:37;0.10;99.90
35043;DHT22;21230;51.170;17.024;2023-04-03T02:40:07;0.10;99.90
35043;DHT22;21230;51.170;17.024;2023-04-03T02:48:45;0.10;99.90
35043;DHT22;21230;51.170;17.024;2023-04-03T02:51:11;0.10;99.90
35043;DHT22;21230;51.170;17.024;2023-04-03T02:53:39;0.10;99.90
35043;DHT22;21230;51.170;17.024;2023-04-03T02:56:12;0.00;99.90
35043;DHT22;21230;51.170;17.024;2023-04-03T02:58:53;0.10;99.90
35043;DHT22;21230;51.170;17.024;2023-04-03T03:01:22;0.10;99.90
35043;DHT22;21230;51.170;17.024;2023-04-03T03:04:01;0.00;99.90
35043;DHT22;21230;51.170;17.024;2023-04-03T03:06:34;0.00;99.90
35043;DHT22;21230;51.170;17.024;2023-04-03T03:09:02;0.00;99.90
35043;DHT22;21230;51.170;17.024;2023-04-03T03:11:35;-0.10;99.90
35043;DHT22;21230;51.170;17.024;2023-04-03T03:14:06;-0.10;99.90
35043;DHT22;21230;51.170;17.024;2023-04-03T03:16:37;-0.10;99.90
35043;DHT22;21230;51.170;17.024;2023-04-03T03:19:08;-0.10;99.90
35043;DHT22;21230;51.170;17.024;2023-04-03T03:21:36;-0.20;99.90
35043;DHT22;21230;51.170;17.024;2023-04-03T03:24:05;-0.20;99.90
35043;DHT22;21230;51.170;17.024;2023-04-03T03:26:31;-0.20;99.90
35043;DHT22;21230;51.170;17.024;2023-04-03T03:28:59;-0.30;99.90
35043;DHT22;21230;51.170;17.024;2023-04-03T03:31:30;-0.30;99.90
35043;DHT22;21230;51.170;17.024;2023-04-03T03:33:56;-0.30;99.90
35043;DHT22;21230;51.170;17.024;2023-04-03T03:36:21;-0.30;99.90
35043;DHT22;21230;51.170;17.024;2023-04-03T03:41:58;-0.40;99.90
35043;DHT22;21230;51.170;17.024;2023-04-03T03:44:32;-0.40;99.90
35043;DHT22;21230;51.170;17.024;2023-04-03T03:46:57;-0.40;99.90
35043;DHT22;21230;51.170;17.024;2023-04-03T03:49:26;-0.50;99.90
35043;DHT22;21230;51.170;17.024;2023-04-03T03:51:55;-0.50;99.90
35043;DHT22;21230;51.170;17.024;2023-04-03T03:54:26;-0.50;99.90
35043;DHT22;21230;51.170;17.024;2023-04-03T03:57:02;-0.50;99.90
35043;DHT22;21230;51.170;17.024;2023-04-03T04:02:24;-0.50;99.90
35043;DHT22;21230;51.170;17.024;2023-04-03T04:05:00;-0.50;99.90
35043;DHT22;21230;51.170;17.024;2023-04-03T04:07:29;-0.50;99.90
35043;DHT22;21230;51.170;17.024;2023-04-03T04:10:11;-0.60;99.90
35043;DHT22;21230;51.170;17.024;2023-04-03T04:12:39;-0.50;99.90
35043;DHT22;21230;51.170;17.024;2023-04-03T04:15:16;-0.60;99.90
35043;DHT22;21230;51.170;17.024;2023-04-03T04:18:03;-0.60;99.90
35043;DHT22;21230;51.170;17.024;2023-04-03T04:20:36;-0.60;99.90
35043;DHT22;21230;51.170;17.024;2023-04-03T04:23:02;-0.60;99.90
35043;DHT22;21230;51.170;17.024;2023-04-03T04:28:06;-0.60;99.90
35043;DHT22;21230;51.170;17.024;2023-04-03T04:30:39;-0.60;99.90
35043;DHT22;21230;51.170;17.024;2023-04-03T04:33:08;-0.70;99.90
35043;DHT22;21230;51.170;17.024;2023-04-03T04:35:46;-0.60;99.90
35043;DHT22;21230;51.170;17.024;2023-04-03T04:38:19;-0.60;99.90
35043;DHT22;21230;51.170;17.024;2023-04-03T04:40:53;-0.70;99.90
35043;DHT22;21230;51.170;17.024;2023-04-03T04:43:22;-0.70;99.90
35043;DHT22;21230;51.170;17.024;2023-04-03T04:45:48;-0.70;99.90
35043;DHT22;21230;51.170;17.024;2023-04-03T04:48:14;-0.70;99.90
35043;DHT22;21230;51.170;17.024;2023-04-03T04:50:42;-0.70;99.90
35043;DHT22;21230;51.170;17.024;2023-04-03T04:53:08;-0.70;99.90
35043;DHT22;21230;51.170;17.024;2023-04-03T04:55:37;-0.70;99.90
35043;DHT22;21230;51.170;17.024;2023-04-03T05:00:58;-0.70;99.90
35043;DHT22;21230;51.170;17.024;2023-04-03T05:03:31;-0.60;99.90
35043;DHT22;21230;51.170;17.024;2023-04-03T05:06:03;-0.60;99.90
35043;DHT22;21230;51.170;17.024;2023-04-03T05:08:42;-0.60;99.90
35043;DHT22;21230;51.170;17.024;2023-04-03T05:11:30;-0.60;99.90
35043;DHT22;21230;51.170;17.024;2023-04-03T05:14:06;-0.50;99.90
35043;DHT22;21230;51.170;17.024;2023-04-03T05:16:35;-0.50;99.90
35043;DHT22;21230;51.170;17.024;2023-04-03T05:19:12;-0.50;99.90
35043;DHT22;21230;51.170;17.024;2023-04-03T05:21:40;-0.50;99.90
35043;DHT22;21230;51.170;17.024;2023-04-03T05:24:20;-0.40;99.90
35043;DHT22;21230;51.170;17.024;2023-04-03T05:26:51;-0.40;99.90
35043;DHT22;21230;51.170;17.024;2023-04-03T05:29:17;-0.40;99.90
35043;DHT22;21230;51.170;17.024;2023-04-03T05:31:45;-0.40;99.90
35043;DHT22;21230;51.170;17.024;2023-04-03T05:37:14;-0.30;99.90
35043;DHT22;21230;51.170;17.024;2023-04-03T05:39:52;-0.20;99.90
35043;DHT22;21230;51.170;17.024;2023-04-03T05:42:17;-0.20;99.90
35043;DHT22;21230;51.170;17.024;2023-04-03T05:45:15;-0.20;99.90
35043;DHT22;21230;51.170;17.024;2023-04-03T05:50:42;-0.10;99.90
35043;DHT22;21230;51.170;17.024;2023-04-03T05:53:38;-0.10;99.90
35043;DHT22;21230;51.170;17.024;2023-04-03T06:01:40;0.10;99.90
35043;DHT22;21230;51.170;17.024;2023-04-03T06:04:20;0.20;99.90
35043;DHT22;21230;51.170;17.024;2023-04-03T06:07:19;0.20;99.90
35043;DHT22;21230;51.170;17.024;2023-04-03T06:12:58;0.30;99.90
35043;DHT22;21230;51.170;17.024;2023-04-03T06:15:27;0.30;99.90
35043;DHT22;21230;51.170;17.024;2023-04-03T06:17:53;0.40;99.90
35043;DHT22;21230;51.170;17.024;2023-04-03T06:20:19;0.50;99.90
35043;DHT22;21230;51.170;17.024;2023-04-03T06:22:53;0.50;99.90
35043;DHT22;21230;51.170;17.024;2023-04-03T06:25:28;0.60;99.90
35043;DHT22;21230;51.170;17.024;2023-04-03T06:27:55;0.50;99.90
35043;DHT22;21230;51.170;17.024;2023-04-03T06:30:54;0.50;99.90
35043;DHT22;21230;51.170;17.024;2023-04-03T06:33:24;0.60;99.90
35043;DHT22;21230;51.170;17.024;2023-04-03T06:35:55;0.60;99.90
35043;DHT22;21230;51.170;17.024;2023-04-03T06:38:23;0.70;99.90
35043;DHT22;21230;51.170;17.024;2023-04-03T06:40:52;0.70;99.90
35043;DHT22;21230;51.170;17.024;2023-04-03T06:43:18;0.70;99.90
35043;DHT22;21230;51.170;17.024;2023-04-03T06:45:57;0.80;99.90
35043;DHT22;21230;51.170;17.024;2023-04-03T06:48:23;0.90;99.90
35043;DHT22;21230;51.170;17.024;2023-04-03T06:50:49;1.00;99.90
35043;DHT22;21230;51.170;17.024;2023-04-03T06:53:14;0.90;99.90
35043;DHT22;21230;51.170;17.024;2023-04-03T06:55:41;0.90;99.90
35043;DHT22;21230;51.170;17.024;2023-04-03T06:58:16;0.90;99.90
35043;DHT22;21230;51.170;17.024;2023-04-03T07:22:32;1.20;99.90
35043;DHT22;21230;51.170;17.024;2023-04-03T07:24:58;1.40;99.90
35043;DHT22;21230;51.170;17.024;2023-04-03T07:27:28;1.30;99.90
35043;DHT22;21230;51.170;17.024;2023-04-03T07:29:53;1.20;99.90
35043;DHT22;21230;51.170;17.024;2023-04-03T07:32:27;1.20;99.90
35043;DHT22;21230;51.170;17.024;2023-04-03T08:09:39;15.70;99.90
35043;DHT22;21230;51.170;17.024;2023-04-03T08:14:05;17.20;99.90
35043;DHT22;21230;51.170;17.024;2023-04-03T08:16:32;17.90;95.20
35043;DHT22;21230;51.170;17.024;2023-04-03T08:18:58;18.30;91.60
35043;DHT22;21230;51.170;17.024;2023-04-03T08:21:24;18.70;90.60
35043;DHT22;21230;51.170;17.024;2023-04-03T08:29:07;15.70;22.60
35043;DHT22;21230;51.170;17.024;2023-04-03T08:31:33;10.30;25.40
35043;DHT22;21230;51.170;17.024;2023-04-03T08:34:01;7.60;34.20
35043;DHT22;21230;51.170;17.024;2023-04-03T08:36:27;5.60;45.40
35043;DHT22;21230;51.170;17.024;2023-04-03T08:38:54;4.30;56.40
35043;DHT22;21230;51.170;17.024;2023-04-03T08:44:03;3.50;77.80
35043;DHT22;21230;51.170;17.024;2023-04-03T08:46:37;3.40;80.30
35043;DHT22;21230;51.170;17.024;2023-04-03T08:51:39;3.10;79.70
35043;DHT22;21230;51.170;17.024;2023-04-03T08:54:21;3.20;82.20
35043;DHT22;21230;51.170;17.024;2023-04-03T08:56:56;3.00;78.40
35043;DHT22;21230;51.170;17.024;2023-04-03T08:59:29;3.10;80.80
35043;DHT22;21230;51.170;17.024;2023-04-03T09:02:00;3.10;80.00
35043;DHT22;21230;51.170;17.024;2023-04-03T09:04:27;3.00;82.60
35043;DHT22;21230;51.170;17.024;2023-04-03T09:06:57;3.00;75.50
35043;DHT22;21230;51.170;17.024;2023-04-03T09:09:37;3.00;73.20
35043;DHT22;21230;51.170;17.024;2023-04-03T09:12:23;2.90;77.90
35043;DHT22;21230;51.170;17.024;2023-04-03T09:14:59;3.00;75.70
35043;DHT22;21230;51.170;17.024;2023-04-03T09:20:15;3.60;68.70
35043;DHT22;21230;51.170;17.024;2023-04-03T09:22:43;3.90;60.50
35043;DHT22;21230;51.170;17.024;2023-04-03T09:25:17;4.00;56.30
35043;DHT22;21230;51.170;17.024;2023-04-03T09:27:45;4.20;58.60
35043;DHT22;21230;51.170;17.024;2023-04-03T09:30:19;4.10;53.50
35043;DHT22;21230;51.170;17.024;2023-04-03T09:32:45;4.20;58.30
35043;DHT22;21230;51.170;17.024;2023-04-03T09:35:19;4.20;53.20
35043;DHT22;21230;51.170;17.024;2023-04-03T09:37:50;4.40;59.20
35043;DHT22;21230;51.170;17.024;2023-04-03T09:40:33;4.10;63.50
35043;DHT22;21230;51.170;17.024;2023-04-03T09:45:47;3.80;65.90
35043;DHT22;21230;51.170;17.024;2023-04-03T09:48:18;3.60;64.40
35043;DHT22;21230;51.170;17.024;2023-04-03T09:58:43;4.10;54.30
35043;DHT22;21230;51.170;17.024;2023-04-03T10:01:26;4.50;58.10
35043;DHT22;21230;51.170;17.024;2023-04-03T10:04:09;4.60;57.30
35043;DHT22;21230;51.170;17.024;2023-04-03T10:06:39;4.70;50.50
35043;DHT22;21230;51.170;17.024;2023-04-03T10:12:03;4.60;50.90
35043;DHT22;21230;51.170;17.024;2023-04-03T10:14:34;4.20;48.80
35043;DHT22;21230;51.170;17.024;2023-04-03T10:19:50;4.30;52.60
35043;DHT22;21230;51.170;17.024;2023-04-03T10:22:41;4.10;49.30
35043;DHT22;21230;51.170;17.024;2023-04-03T10:25:17;4.30;53.70
35043;DHT22;21230;51.170;17.024;2023-04-03T10:30:42;3.80;54.20
35043;DHT22;21230;51.170;17.024;2023-04-03T10:33:18;3.70;56.20
35043;DHT22;21230;51.170;17.024;2023-04-03T10:36:02;4.00;53.10
35043;DHT22;21230;51.170;17.024;2023-04-03T10:38:42;4.10;50.20
35043;DHT22;21230;51.170;17.024;2023-04-03T10:49:15;4.10;45.30
35043;DHT22;21230;51.170;17.024;2023-04-03T10:51:47;3.90;46.60
35043;DHT22;21230;51.170;17.024;2023-04-03T10:56:52;4.00;51.00
35043;DHT22;21230;51.170;17.024;2023-04-03T11:01:53;3.80;53.50
35043;DHT22;21230;51.170;17.024;2023-04-03T11:04:23;3.60;50.50
35043;DHT22;21230;51.170;17.024;2023-04-03T11:11:50;3.90;54.50
35043;DHT22;21230;51.170;17.024;2023-04-03T11:14:27;4.40;57.80
35043;DHT22;21230;51.170;17.024;2023-04-03T11:22:28;4.10;44.90
35043;DHT22;21230;51.170;17.024;2023-04-03T11:25:03;4.10;49.20
35043;DHT22;21230;51.170;17.024;2023-04-03T11:30:54;4.50;46.30
35043;DHT22;21230;51.170;17.024;2023-04-03T11:35:26;4.10;35.10
35043;DHT22;21230;51.170;17.024;2023-04-03T11:37:52;4.20;38.10
35043;DHT22;21230;51.170;17.024;2023-04-03T11:40:20;4.30;40.00
35043;DHT22;21230;51.170;17.024;2023-04-03T11:43:07;4.50;40.50
35043;DHT22;21230;51.170;17.024;2023-04-03T11:50:44;4.70;38.90
35043;DHT22;21230;51.170;17.024;2023-04-03T11:55:42;4.50;41.50
35043;DHT22;21230;51.170;17.024;2023-04-03T11:58:13;4.60;41.00
35043;DHT22;21230;51.170;17.024;2023-04-03T12:00:47;4.80;39.30
35043;DHT22;21230;51.170;17.024;2023-04-03T12:05:56;4.90;37.40
35043;DHT22;21230;51.170;17.024;2023-04-03T12:14:01;4.60;33.30
35043;DHT22;21230;51.170;17.024;2023-04-03T12:16:32;4.40;33.10
35043;DHT22;21230;51.170;17.024;2023-04-03T12:19:01;4.50;34.80
35043;DHT22;21230;51.170;17.024;2023-04-03T12:29:20;4.50;40.80
35043;DHT22;21230;51.170;17.024;2023-04-03T12:32:15;4.40;41.60
35043;DHT22;21230;51.170;17.024;2023-04-03T12:34:56;4.30;39.20
35043;DHT22;21230;51.170;17.024;2023-04-03T12:37:37;4.30;38.40
35043;DHT22;21230;51.170;17.024;2023-04-03T12:42:58;4.60;36.80
35043;DHT22;21230;51.170;17.024;2023-04-03T12:48:21;5.00;39.90
35043;DHT22;21230;51.170;17.024;2023-04-03T12:50:49;4.70;37.80
35043;DHT22;21230;51.170;17.024;2023-04-03T12:53:23;4.50;39.60
35043;DHT22;21230;51.170;17.024;2023-04-03T12:55:58;4.50;38.80
35043;DHT22;21230;51.170;17.024;2023-04-03T12:59:33;4.70;36.10
35043;DHT22;21230;51.170;17.024;2023-04-03T13:01:34;5.00;35.20
35043;DHT22;21230;51.170;17.024;2023-04-03T13:03:59;5.10;34.10
35043;DHT22;21230;51.170;17.024;2023-04-03T13:06:40;5.10;32.50
35043;DHT22;21230;51.170;17.024;2023-04-03T13:09:18;5.10;34.70
35043;DHT22;21230;51.170;17.024;2023-04-03T13:11:56;5.10;35.10
35043;DHT22;21230;51.170;17.024;2023-04-03T13:14:25;5.10;35.20
35043;DHT22;21230;51.170;17.024;2023-04-03T13:17:09;4.90;34.90
35043;DHT22;21230;51.170;17.024;2023-04-03T13:19:40;4.90;36.70
35043;DHT22;21230;51.170;17.024;2023-04-03T13:22:32;4.80;36.00
35043;DHT22;21230;51.170;17.024;2023-04-03T13:24:56;4.70;34.60
35043;DHT22;21230;51.170;17.024;2023-04-03T13:27:26;4.60;32.80
35043;DHT22;21230;51.170;17.024;2023-04-03T13:29:59;4.50;32.40
35043;DHT22;21230;51.170;17.024;2023-04-03T13:32:36;4.70;32.10
35043;DHT22;21230;51.170;17.024;2023-04-03T13:35:23;5.00;34.80
35043;DHT22;21230;51.170;17.024;2023-04-03T13:37:58;5.10;33.80
35043;DHT22;21230;51.170;17.024;2023-04-03T13:40:37;4.90;33.90
35043;DHT22;21230;51.170;17.024;2023-04-03T13:43:21;4.70;34.10
35043;DHT22;21230;51.170;17.024;2023-04-03T13:48:43;5.10;32.70
35043;DHT22;21230;51.170;17.024;2023-04-03T13:53:43;5.80;33.90
35043;DHT22;21230;51.170;17.024;2023-04-03T13:56:58;5.70;33.10
35043;DHT22;21230;51.170;17.024;2023-04-03T14:02:14;5.30;29.50
35043;DHT22;21230;51.170;17.024;2023-04-03T14:07:11;5.40;29.10
35043;DHT22;21230;51.170;17.024;2023-04-03T14:09:43;5.40;29.90
35043;DHT22;21230;51.170;17.024;2023-04-03T14:12:43;5.20;28.50
35043;DHT22;21230;51.170;17.024;2023-04-03T14:15:04;5.00;29.50
35043;DHT22;21230;51.170;17.024;2023-04-03T14:17:33;4.90;29.00
35043;DHT22;21230;51.170;17.024;2023-04-03T14:19:59;5.00;28.60
35043;DHT22;21230;51.170;17.024;2023-04-03T14:22:28;5.10;27.50
35043;DHT22;21230;51.170;17.024;2023-04-03T14:24:56;5.10;26.10
35043;DHT22;21230;51.170;17.024;2023-04-03T14:27:44;5.10;26.70
35043;DHT22;21230;51.170;17.024;2023-04-03T14:30:43;5.00;27.00
35043;DHT22;21230;51.170;17.024;2023-04-03T14:33:05;5.00;27.60
35043;DHT22;21230;51.170;17.024;2023-04-03T14:35:32;5.20;28.20
35043;DHT22;21230;51.170;17.024;2023-04-03T14:38:00;5.30;27.20
35043;DHT22;21230;51.170;17.024;2023-04-03T14:40:26;5.30;27.30
35043;DHT22;21230;51.170;17.024;2023-04-03T14:42:57;5.40;27.80
35043;DHT22;21230;51.170;17.024;2023-04-03T14:45:25;5.30;28.60
35043;DHT22;21230;51.170;17.024;2023-04-03T14:47:52;5.10;28.90
35043;DHT22;21230;51.170;17.024;2023-04-03T14:50:22;4.90;28.60
35043;DHT22;21230;51.170;17.024;2023-04-03T14:52:49;4.80;29.40
35043;DHT22;21230;51.170;17.024;2023-04-03T14:55:16;4.80;30.40
35043;DHT22;21230;51.170;17.024;2023-04-03T14:57:43;4.80;31.20
35043;DHT22;21230;51.170;17.024;2023-04-03T15:00:15;4.80;31.30
35043;DHT22;21230;51.170;17.024;2023-04-03T15:02:43;4.80;32.40
35043;DHT22;21230;51.170;17.024;2023-04-03T15:05:10;4.80;29.40
35043;DHT22;21230;51.170;17.024;2023-04-03T15:07:47;4.80;29.00
35043;DHT22;21230;51.170;17.024;2023-04-03T15:10:19;4.80;29.10
35043;DHT22;21230;51.170;17.024;2023-04-03T15:12:47;4.80;29.40
35043;DHT22;21230;51.170;17.024;2023-04-03T15:15:18;4.70;29.90
35043;DHT22;21230;51.170;17.024;2023-04-03T15:17:53;4.60;30.10
35043;DHT22;21230;51.170;17.024;2023-04-03T15:20:24;4.50;29.50
35043;DHT22;21230;51.170;17.024;2023-04-03T15:22:56;4.50;29.00
35043;DHT22;21230;51.170;17.024;2023-04-03T15:25:23;4.50;31.00
35043;DHT22;21230;51.170;17.024;2023-04-03T15:27:49;4.50;33.00
35043;DHT22;21230;51.170;17.024;2023-04-03T15:30:15;4.50;33.70
35043;DHT22;21230;51.170;17.024;2023-04-03T15:32:42;4.50;34.70
35043;DHT22;21230;51.170;17.024;2023-04-03T15:35:10;4.50;35.00
35043;DHT22;21230;51.170;17.024;2023-04-03T15:37:36;4.50;35.80
35043;DHT22;21230;51.170;17.024;2023-04-03T15:40:03;4.40;37.20
35043;DHT22;21230;51.170;17.024;2023-04-03T15:42:29;4.40;37.90
35043;DHT22;21230;51.170;17.024;2023-04-03T15:44:55;4.40;37.40
35043;DHT22;21230;51.170;17.024;2023-04-03T15:47:25;4.40;38.20
35043;DHT22;21230;51.170;17.024;2023-04-03T15:49:51;4.30;37.90
35043;DHT22;21230;51.170;17.024;2023-04-03T15:52:18;4.30;38.30
35043;DHT22;21230;51.170;17.024;2023-04-03T15:54:48;4.40;37.40
35043;DHT22;21230;51.170;17.024;2023-04-03T15:57:15;4.30;37.20
35043;DHT22;21230;51.170;17.024;2023-04-03T15:59:48;4.20;38.40
35043;DHT22;21230;51.170;17.024;2023-04-03T16:02:18;4.20;40.30
35043;DHT22;21230;51.170;17.024;2023-04-03T16:05:05;4.20;41.20
35043;DHT22;21230;51.170;17.024;2023-04-03T16:07:34;4.20;42.40
35043;DHT22;21230;51.170;17.024;2023-04-03T16:10:00;4.10;41.50
35043;DHT22;21230;51.170;17.024;2023-04-03T16:12:26;4.10;41.50
35043;DHT22;21230;51.170;17.024;2023-04-03T16:14:55;4.10;41.30
35043;DHT22;21230;51.170;17.024;2023-04-03T16:17:27;4.10;42.20
35043;DHT22;21230;51.170;17.024;2023-04-03T16:19:54;4.00;43.00
35043;DHT22;21230;51.170;17.024;2023-04-03T16:22:24;4.00;44.20
35043;DHT22;21230;51.170;17.024;2023-04-03T16:24:51;4.00;45.00
35043;DHT22;21230;51.170;17.024;2023-04-03T16:27:17;4.00;43.80
35043;DHT22;21230;51.170;17.024;2023-04-03T16:29:43;4.00;42.90
35043;DHT22;21230;51.170;17.024;2023-04-03T16:32:10;4.00;42.40
35043;DHT22;21230;51.170;17.024;2023-04-03T16:34:37;3.90;42.80
35043;DHT22;21230;51.170;17.024;2023-04-03T16:37:03;3.90;44.20
35043;DHT22;21230;51.170;17.024;2023-04-03T16:39:29;3.90;44.70
35043;DHT22;21230;51.170;17.024;2023-04-03T16:41:58;3.90;45.50
35043;DHT22;21230;51.170;17.024;2023-04-03T16:44:25;3.80;46.00
35043;DHT22;21230;51.170;17.024;2023-04-03T16:46:52;3.80;45.80
35043;DHT22;21230;51.170;17.024;2023-04-03T16:49:19;3.80;43.70
35043;DHT22;21230;51.170;17.024;2023-04-03T16:51:48;3.70;42.10
35043;DHT22;21230;51.170;17.024;2023-04-03T16:54:14;3.70;41.40
35043;DHT22;21230;51.170;17.024;2023-04-03T16:56:39;3.70;42.10
35043;DHT22;21230;51.170;17.024;2023-04-03T16:59:05;3.70;42.50
35043;DHT22;21230;51.170;17.024;2023-04-03T17:01:33;3.70;42.60
35043;DHT22;21230;51.170;17.024;2023-04-03T17:03:59;3.70;43.60
35043;DHT22;21230;51.170;17.024;2023-04-03T17:06:32;3.60;43.40
35043;DHT22;21230;51.170;17.024;2023-04-03T17:08:58;3.60;43.90
35043;DHT22;21230;51.170;17.024;2023-04-03T17:11:24;3.60;44.40
35043;DHT22;21230;51.170;17.024;2023-04-03T17:13:51;3.60;44.90
35043;DHT22;21230;51.170;17.024;2023-04-03T17:16:21;3.60;44.70
35043;DHT22;21230;51.170;17.024;2023-04-03T17:18:48;3.60;45.10
35043;DHT22;21230;51.170;17.024;2023-04-03T17:21:15;3.50;45.60
35043;DHT22;21230;51.170;17.024;2023-04-03T17:23:43;3.50;45.50
35043;DHT22;21230;51.170;17.024;2023-04-03T17:26:12;3.50;46.00
35043;DHT22;21230;51.170;17.024;2023-04-03T17:28:47;3.50;45.20
35043;DHT22;21230;51.170;17.024;2023-04-03T17:31:13;3.50;46.10
35043;DHT22;21230;51.170;17.024;2023-04-03T17:33:41;3.50;46.90
35043;DHT22;21230;51.170;17.024;2023-04-03T17:36:08;3.50;47.10
35043;DHT22;21230;51.170;17.024;2023-04-03T17:38:36;3.50;47.40
35043;DHT22;21230;51.170;17.024;2023-04-03T17:41:04;3.50;47.80
35043;DHT22;21230;51.170;17.024;2023-04-03T17:43:33;3.40;47.00
35043;DHT22;21230;51.170;17.024;2023-04-03T17:46:00;3.40;47.10
35043;DHT22;21230;51.170;17.024;2023-04-03T17:48:29;3.40;48.20
35043;DHT22;21230;51.170;17.024;2023-04-03T17:51:08;3.40;49.10
35043;DHT22;21230;51.170;17.024;2023-04-03T17:53:46;3.40;50.30
35043;DHT22;21230;51.170;17.024;2023-04-03T17:56:16;3.40;51.90
35043;DHT22;21230;51.170;17.024;2023-04-03T17:58:42;3.30;52.30
35043;DHT22;21230;51.170;17.024;2023-04-03T18:01:19;3.30;53.60
35043;DHT22;21230;51.170;17.024;2023-04-03T18:03:58;3.30;55.00
35043;DHT22;21230;51.170;17.024;2023-04-03T18:06:26;3.30;56.50
35043;DHT22;21230;51.170;17.024;2023-04-03T18:09:04;3.30;55.90
35043;DHT22;21230;51.170;17.024;2023-04-03T18:11:35;3.20;57.20
35043;DHT22;21230;51.170;17.024;2023-04-03T18:14:02;3.30;58.60
35043;DHT22;21230;51.170;17.024;2023-04-03T18:16:29;3.20;58.70
35043;DHT22;21230;51.170;17.024;2023-04-03T18:18:57;3.20;56.30
35043;DHT22;21230;51.170;17.024;2023-04-03T18:21:22;3.30;56.20
35043;DHT22;21230;51.170;17.024;2023-04-03T18:23:52;3.30;54.80
35043;DHT22;21230;51.170;17.024;2023-04-03T18:26:19;3.30;54.50
35043;DHT22;21230;51.170;17.024;2023-04-03T18:28:52;3.30;54.10
35043;DHT22;21230;51.170;17.024;2023-04-03T18:31:19;3.30;53.70
35043;DHT22;21230;51.170;17.024;2023-04-03T18:33:45;3.30;55.00
35043;DHT22;21230;51.170;17.024;2023-04-03T18:36:11;3.20;57.00
35043;DHT22;21230;51.170;17.024;2023-04-03T18:38:40;3.20;58.80
35043;DHT22;21230;51.170;17.024;2023-04-03T18:41:06;3.20;61.20
35043;DHT22;21230;51.170;17.024;2023-04-03T18:43:34;3.20;63.60
35043;DHT22;21230;51.170;17.024;2023-04-03T18:46:01;3.20;65.50
35043;DHT22;21230;51.170;17.024;2023-04-03T18:48:33;3.10;67.50
35043;DHT22;21230;51.170;17.024;2023-04-03T18:51:02;3.10;68.60
35043;DHT22;21230;51.170;17.024;2023-04-03T18:53:33;3.10;69.10
35043;DHT22;21230;51.170;17.024;2023-04-03T18:55:59;3.00;70.30
35043;DHT22;21230;51.170;17.024;2023-04-03T18:58:30;3.10;70.20
35043;DHT22;21230;51.170;17.024;2023-04-03T19:00:57;3.00;70.40
35043;DHT22;21230;51.170;17.024;2023-04-03T19:03:26;3.00;69.60
35043;DHT22;21230;51.170;17.024;2023-04-03T19:05:52;3.00;70.80